Tampa, Kansas
Current Conditions -  °F | °C
As of 9:53 AM on Sunday 21 Dec 2014 (Local Time) from KSLN Reporting Station
Overcast Overcast  
Wind Chill: 35°   Ceiling: 1200
Heat Index: 42°   Visibility: 10mi
Dew Point: 38°   Wind: 15mph
Humidity: 85%   Direction: 180°S
Pressure: 29.9"   Gusts: 22mph
Location:  38.55°N, 97.15°W
Report Text: KSLN 211553Z 18013G19KT 10SM OVC012 06/03 A2990 RMK AO2 SLP130 T00560033
Loading
Personal Weather Stations






























Interactive Weather Map New forecast layout! Learn more

10-Day Weather Forecast

Advertisements
Track Severe Weather on mobile